createdAt,value
2022-08-31T00:01:30.545Z,22.91
2022-08-31T00:04:03.521Z,22.91
2022-08-31T00:06:32.527Z,22.92
2022-08-31T00:09:01.008Z,22.89
2022-08-31T00:11:31.025Z,22.89
2022-08-31T00:14:03.688Z,22.86
2022-08-31T00:16:34.247Z,22.83
2022-08-31T00:19:03.167Z,22.81
2022-08-31T00:21:31.165Z,22.77
2022-08-31T00:23:59.617Z,22.77
2022-08-31T00:26:28.266Z,22.76
2022-08-31T00:28:56.140Z,22.71
2022-08-31T00:31:25.563Z,22.69
2022-08-31T00:33:53.589Z,22.68
2022-08-31T00:36:24.323Z,22.61
2022-08-31T00:38:53.955Z,22.63
2022-08-31T00:41:25.160Z,22.62
2022-08-31T00:43:55.627Z,22.59
2022-08-31T00:46:27.712Z,22.56
2022-08-31T00:49:00.935Z,22.57
2022-08-31T00:51:31.327Z,22.57
2022-08-31T00:54:00.709Z,22.55
2022-08-31T00:56:31.336Z,22.54
2022-08-31T00:59:01.149Z,22.46
2022-08-31T01:01:30.868Z,22.46
2022-08-31T01:04:00.185Z,22.49
2022-08-31T01:06:28.761Z,22.49
2022-08-31T01:08:58.870Z,22.46
2022-08-31T01:11:27.434Z,22.43
2022-08-31T01:13:56.153Z,22.39
2022-08-31T01:16:27.622Z,22.36
2022-08-31T01:19:00.317Z,22.36
2022-08-31T01:21:33.159Z,22.35
2022-08-31T01:24:03.782Z,22.37
2022-08-31T01:26:33.715Z,22.36
2022-08-31T01:29:05.649Z,22.36
2022-08-31T01:31:36.068Z,22.36
2022-08-31T01:34:05.397Z,22.38
2022-08-31T01:36:35.495Z,22.42
2022-08-31T01:39:05.342Z,22.40
2022-08-31T01:41:33.404Z,22.42
2022-08-31T01:44:01.759Z,22.42
2022-08-31T01:46:29.816Z,22.47
2022-08-31T01:48:57.792Z,22.48
2022-08-31T01:51:25.765Z,22.46
2022-08-31T01:53:54.848Z,22.43
2022-08-31T01:56:27.610Z,22.41
2022-08-31T01:58:55.823Z,22.40
2022-08-31T02:01:34.399Z,22.44
2022-08-31T02:04:03.116Z,22.41
2022-08-31T02:06:31.954Z,22.39
2022-08-31T02:08:59.832Z,22.36
2022-08-31T02:11:29.364Z,22.34
2022-08-31T02:13:57.335Z,22.32
2022-08-31T02:16:25.574Z,22.28
2022-08-31T02:18:53.664Z,22.24
2022-08-31T02:21:22.559Z,22.18
2022-08-31T02:23:50.889Z,22.13
2022-08-31T02:26:18.942Z,22.15
2022-08-31T02:28:48.590Z,22.17
2022-08-31T02:31:16.783Z,22.16
2022-08-31T02:33:44.927Z,22.17
2022-08-31T02:36:13.469Z,22.15
2022-08-31T02:38:42.012Z,22.15
2022-08-31T02:41:10.932Z,22.18
2022-08-31T02:43:38.879Z,22.19
2022-08-31T02:46:08.312Z,22.19
2022-08-31T02:48:37.503Z,22.20
2022-08-31T02:51:07.935Z,22.12
2022-08-31T02:53:37.006Z,22.06
2022-08-31T02:56:05.670Z,22.03
2022-08-31T02:58:34.134Z,22.02
2022-08-31T03:01:02.220Z,21.99
2022-08-31T03:03:31.614Z,22.01
2022-08-31T03:05:59.594Z,22.00
2022-08-31T03:08:27.620Z,21.97
2022-08-31T03:10:59.056Z,21.94
2022-08-31T03:13:27.115Z,21.90
2022-08-31T03:15:55.218Z,21.87
2022-08-31T03:18:23.196Z,21.83
2022-08-31T03:20:52.437Z,21.80
2022-08-31T03:23:20.539Z,21.80
2022-08-31T03:25:48.797Z,21.78
2022-08-31T03:28:16.963Z,21.74
2022-08-31T03:30:45.275Z,21.69
2022-08-31T03:33:13.602Z,21.60
2022-08-31T03:35:44.753Z,21.48
2022-08-31T03:38:16.056Z,21.39
2022-08-31T03:40:45.440Z,21.36
2022-08-31T03:43:14.622Z,21.31
2022-08-31T03:45:43.822Z,21.24
2022-08-31T03:48:13.184Z,21.23
2022-08-31T03:50:42.729Z,21.22
2022-08-31T03:53:11.421Z,21.18
2022-08-31T03:55:43.264Z,21.11
2022-08-31T03:58:12.272Z,21.08
2022-08-31T04:00:40.840Z,21.02
2022-08-31T04:03:08.688Z,20.97
2022-08-31T04:05:42.723Z,20.93
2022-08-31T04:08:10.693Z,20.93
2022-08-31T04:10:42.207Z,20.93
2022-08-31T04:13:10.224Z,20.92
2022-08-31T04:15:39.146Z,20.91
2022-08-31T04:18:07.955Z,20.89
2022-08-31T04:20:36.993Z,20.85
2022-08-31T04:23:05.396Z,20.86
2022-08-31T04:25:34.088Z,20.87
2022-08-31T04:28:03.822Z,20.86
2022-08-31T04:30:31.944Z,20.82
2022-08-31T04:33:02.225Z,20.81
2022-08-31T04:35:30.245Z,20.77
2022-08-31T04:37:58.210Z,20.77
2022-08-31T04:40:27.479Z,20.78
2022-08-31T04:42:55.501Z,20.75
2022-08-31T04:45:25.224Z,20.78
2022-08-31T04:47:53.200Z,20.78
2022-08-31T04:50:21.430Z,20.77
2022-08-31T04:53:03.406Z,20.74
2022-08-31T04:55:32.330Z,20.71
2022-08-31T04:58:00.275Z,20.68
2022-08-31T05:00:29.789Z,20.69
2022-08-31T05:02:57.768Z,20.62
2022-08-31T05:05:25.759Z,20.59
2022-08-31T05:07:53.725Z,20.58
2022-08-31T05:10:23.326Z,20.56
2022-08-31T05:12:52.403Z,20.52
2022-08-31T05:15:20.371Z,20.54
2022-08-31T05:17:49.788Z,20.49
2022-08-31T05:20:18.109Z,20.52
2022-08-31T05:22:46.146Z,20.54
2022-08-31T05:25:14.217Z,20.53
2022-08-31T05:27:42.507Z,20.58
2022-08-31T05:30:11.788Z,20.58
2022-08-31T05:32:39.666Z,20.53
2022-08-31T05:35:10.809Z,20.55
2022-08-31T05:37:39.423Z,20.59
2022-08-31T05:40:08.959Z,20.60
2022-08-31T05:42:37.381Z,20.60
2022-08-31T05:45:06.054Z,20.64
2022-08-31T05:47:33.995Z,20.62
2022-08-31T05:50:01.966Z,20.62
2022-08-31T05:52:31.266Z,20.68
2022-08-31T05:54:59.766Z,20.71
2022-08-31T05:57:27.742Z,20.71
2022-08-31T05:59:55.749Z,20.72
2022-08-31T06:02:27.597Z,20.72
2022-08-31T06:04:58.373Z,20.73
2022-08-31T06:07:26.577Z,20.77
2022-08-31T06:09:55.996Z,20.81
2022-08-31T06:12:25.961Z,20.76
2022-08-31T06:14:55.423Z,20.82
2022-08-31T06:17:24.417Z,20.84
2022-08-31T06:19:52.510Z,20.88
2022-08-31T06:22:20.484Z,20.89
2022-08-31T06:24:48.518Z,20.92
2022-08-31T06:27:18.828Z,20.95
2022-08-31T06:29:46.933Z,20.96
2022-08-31T06:32:15.782Z,20.96
2022-08-31T06:34:44.236Z,20.98
2022-08-31T06:37:19.039Z,20.99
2022-08-31T06:39:47.907Z,20.95
2022-08-31T06:42:17.529Z,20.94
2022-08-31T06:44:45.653Z,20.99
2022-08-31T06:47:13.718Z,21.01
2022-08-31T06:49:41.736Z,21.07
2022-08-31T06:52:09.749Z,21.11
2022-08-31T06:54:37.708Z,21.07
2022-08-31T06:57:05.864Z,21.06
2022-08-31T06:59:35.325Z,21.07
2022-08-31T07:02:03.923Z,21.05
2022-08-31T07:04:33.713Z,21.05
2022-08-31T07:07:01.684Z,21.08
2022-08-31T07:09:30.060Z,21.08
2022-08-31T07:11:58.195Z,21.15
2022-08-31T07:14:28.501Z,21.14
2022-08-31T07:16:59.843Z,21.08
2022-08-31T07:19:28.343Z,21.11
2022-08-31T07:21:58.290Z,21.15
2022-08-31T07:24:30.459Z,21.11
2022-08-31T07:27:02.358Z,21.16
2022-08-31T07:29:37.706Z,21.19
2022-08-31T07:32:07.777Z,21.20
2022-08-31T07:34:36.518Z,21.18
2022-08-31T07:37:23.423Z,21.21
2022-08-31T07:40:10.108Z,21.25
2022-08-31T07:42:43.408Z,21.25
2022-08-31T07:45:14.275Z,21.25
2022-08-31T07:47:47.124Z,21.24
2022-08-31T07:50:16.269Z,21.24
2022-08-31T07:52:48.474Z,21.26
2022-08-31T07:55:18.140Z,21.20
2022-08-31T07:57:46.728Z,21.11
2022-08-31T08:00:18.239Z,21.05
2022-08-31T08:02:53.351Z,21.02
2022-08-31T08:05:27.030Z,20.84
2022-08-31T08:08:00.245Z,20.62
2022-08-31T08:10:30.070Z,20.48
2022-08-31T08:13:04.932Z,20.38
2022-08-31T08:15:35.550Z,20.28
2022-08-31T08:18:06.059Z,20.06
2022-08-31T08:20:38.569Z,19.99
2022-08-31T08:23:13.715Z,19.88
2022-08-31T08:25:44.345Z,19.87
2022-08-31T08:28:38.157Z,19.83
2022-08-31T08:31:05.288Z,19.75
2022-08-31T08:33:36.444Z,19.59
2022-08-31T08:36:08.788Z,19.44
2022-08-31T08:38:39.395Z,19.40
2022-08-31T08:41:15.173Z,19.35
2022-08-31T08:43:47.980Z,19.33
2022-08-31T08:46:34.935Z,19.27
2022-08-31T08:49:24.761Z,19.22
2022-08-31T08:51:57.242Z,19.19
2022-08-31T08:54:32.822Z,19.17
2022-08-31T08:57:04.544Z,19.09
2022-08-31T08:59:32.512Z,18.97
2022-08-31T09:02:05.099Z,18.99
2022-08-31T09:04:50.860Z,18.90
2022-08-31T09:07:37.504Z,18.93
2022-08-31T09:10:11.856Z,18.97
2022-08-31T09:12:49.092Z,19.03
2022-08-31T09:15:41.932Z,19.07
2022-08-31T09:18:28.155Z,19.06
2022-08-31T09:21:16.299Z,19.07
2022-08-31T09:23:49.286Z,19.15
2022-08-31T09:26:19.051Z,19.18
2022-08-31T09:28:49.194Z,19.19
2022-08-31T09:31:34.754Z,19.20
2022-08-31T09:34:03.373Z,19.16
2022-08-31T09:36:41.404Z,19.19
2022-08-31T09:39:22.759Z,19.24
2022-08-31T09:41:55.061Z,19.26
2022-08-31T09:44:34.441Z,19.35
2022-08-31T09:47:05.562Z,19.43
2022-08-31T09:49:37.673Z,19.53
2022-08-31T09:52:21.245Z,19.62
2022-08-31T09:55:13.942Z,19.70
2022-08-31T09:57:54.786Z,19.72
2022-08-31T10:00:35.240Z,19.79
2022-08-31T10:03:13.613Z,19.88
2022-08-31T10:05:44.714Z,19.93
2022-08-31T10:08:31.077Z,19.98
2022-08-31T10:11:03.179Z,20.02
2022-08-31T10:13:38.875Z,20.03
2022-08-31T10:16:17.112Z,20.06
2022-08-31T10:18:56.125Z,20.06
2022-08-31T10:21:31.077Z,20.03
2022-08-31T10:24:20.488Z,20.11
2022-08-31T10:26:55.098Z,20.16
2022-08-31T10:29:32.838Z,20.19
2022-08-31T10:32:09.247Z,20.24
2022-08-31T10:34:59.634Z,20.24
2022-08-31T10:37:35.697Z,20.24
2022-08-31T10:40:10.457Z,20.25
2022-08-31T10:42:44.215Z,20.24
2022-08-31T10:45:18.892Z,20.25
2022-08-31T10:47:50.442Z,20.25
2022-08-31T10:50:27.509Z,20.24
2022-08-31T10:53:06.961Z,20.25
2022-08-31T10:55:46.619Z,20.24
2022-08-31T10:58:23.977Z,20.17
2022-08-31T11:00:56.545Z,20.16
2022-08-31T11:03:46.008Z,20.14
2022-08-31T11:06:22.589Z,20.12
2022-08-31T11:08:59.199Z,20.06
2022-08-31T11:11:42.474Z,20.07
2022-08-31T11:14:45.395Z,20.02
2022-08-31T11:17:39.443Z,19.96
2022-08-31T11:20:22.010Z,19.89
2022-08-31T11:23:10.615Z,19.88
2022-08-31T11:26:14.753Z,19.83
2022-08-31T11:28:48.953Z,19.79
2022-08-31T11:31:24.055Z,19.72
2022-08-31T11:34:15.138Z,19.75
2022-08-31T11:36:54.973Z,19.77
2022-08-31T11:39:44.459Z,19.81
2022-08-31T11:42:45.534Z,19.83
2022-08-31T11:45:28.046Z,19.88
2022-08-31T11:47:58.237Z,19.86
2022-08-31T11:51:07.286Z,19.91
2022-08-31T11:53:38.154Z,19.97
2022-08-31T11:56:07.043Z,20.05
2022-08-31T11:58:39.428Z,20.05
2022-08-31T12:01:35.495Z,20.14
2022-08-31T12:04:06.522Z,20.15
2022-08-31T12:07:12.184Z,20.28
2022-08-31T12:10:18.211Z,20.29
2022-08-31T12:12:59.614Z,20.34
2022-08-31T12:15:38.809Z,20.32
2022-08-31T12:18:30.974Z,20.33
2022-08-31T12:21:25.822Z,20.34
2022-08-31T12:24:09.308Z,20.32
2022-08-31T12:27:05.776Z,20.38
2022-08-31T12:29:35.056Z,20.44
2022-08-31T12:32:15.000Z,20.48
2022-08-31T12:34:50.039Z,20.54
2022-08-31T12:37:24.846Z,20.57
2022-08-31T12:40:25.348Z,20.64
2022-08-31T12:43:01.764Z,20.65
2022-08-31T12:46:14.752Z,20.71
2022-08-31T12:49:15.792Z,20.73
2022-08-31T12:51:49.097Z,20.76
2022-08-31T12:54:52.688Z,20.80
2022-08-31T12:57:37.019Z,20.83
2022-08-31T13:00:13.197Z,20.84
2022-08-31T13:02:44.143Z,20.87
2022-08-31T13:05:25.006Z,20.97
2022-08-31T13:07:54.843Z,21.01
2022-08-31T13:10:32.431Z,21.03
2022-08-31T13:13:03.471Z,21.07
2022-08-31T13:15:39.914Z,21.11
2022-08-31T13:18:12.691Z,21.22
2022-08-31T13:20:42.949Z,21.30
2022-08-31T13:23:15.186Z,21.37
2022-08-31T13:25:48.384Z,21.42
2022-08-31T13:28:26.267Z,21.52
2022-08-31T13:31:03.034Z,21.59
2022-08-31T13:33:34.889Z,21.65
2022-08-31T13:36:07.810Z,21.81
2022-08-31T13:38:47.554Z,21.91
2022-08-31T13:41:23.718Z,21.94
2022-08-31T13:43:58.826Z,21.92
2022-08-31T13:46:41.992Z,22.02
2022-08-31T13:49:27.259Z,22.12
2022-08-31T13:51:55.084Z,22.13
2022-08-31T13:54:30.621Z,22.10
2022-08-31T13:57:10.718Z,22.16
2022-08-31T13:59:41.028Z,22.17
2022-08-31T14:02:37.304Z,22.18
2022-08-31T14:05:08.722Z,22.21
2022-08-31T14:07:57.730Z,22.28
2022-08-31T14:10:29.338Z,22.33
2022-08-31T14:12:59.770Z,22.32
2022-08-31T14:15:37.243Z,22.32
2022-08-31T14:18:25.822Z,22.35
2022-08-31T14:21:21.532Z,22.36
2022-08-31T14:23:52.690Z,22.39
2022-08-31T14:26:28.120Z,22.45
2022-08-31T14:29:00.354Z,22.46
2022-08-31T14:31:29.588Z,22.47
2022-08-31T14:34:09.030Z,22.53
2022-08-31T14:36:43.674Z,22.56
2022-08-31T14:39:11.788Z,22.60
2022-08-31T14:41:41.017Z,22.62
2022-08-31T14:44:10.026Z,22.65
2022-08-31T14:46:39.818Z,22.66
2022-08-31T14:49:08.245Z,22.71
2022-08-31T14:51:38.541Z,22.75
2022-08-31T14:54:09.006Z,22.82
2022-08-31T14:56:48.008Z,22.86
2022-08-31T14:59:19.774Z,22.89
2022-08-31T15:01:50.550Z,22.92
2022-08-31T15:04:20.650Z,22.98
2022-08-31T15:06:52.577Z,23.03
2022-08-31T15:09:20.722Z,23.07
2022-08-31T15:11:51.323Z,23.12
2022-08-31T15:14:19.474Z,23.17
2022-08-31T15:16:50.738Z,23.23
2022-08-31T15:19:19.071Z,23.30
2022-08-31T15:21:52.720Z,23.37
2022-08-31T15:24:27.863Z,23.45
2022-08-31T15:26:59.977Z,23.53
2022-08-31T15:29:30.381Z,23.63
2022-08-31T15:31:59.921Z,23.68
2022-08-31T15:34:30.235Z,23.73
2022-08-31T15:37:02.247Z,23.71
2022-08-31T15:39:32.873Z,23.74
2022-08-31T15:42:06.013Z,23.77
2022-08-31T15:44:35.273Z,23.78
2022-08-31T15:47:21.038Z,23.78
2022-08-31T15:49:48.778Z,23.78
2022-08-31T15:52:16.627Z,23.78
2022-08-31T15:54:44.480Z,23.78
2022-08-31T15:57:16.034Z,23.78
2022-08-31T15:59:45.652Z,23.76
2022-08-31T16:02:15.417Z,23.76
2022-08-31T16:04:43.940Z,23.74
2022-08-31T16:07:13.684Z,23.76
2022-08-31T16:09:44.708Z,23.73
2022-08-31T16:12:15.522Z,23.78
2022-08-31T16:14:45.232Z,23.82
2022-08-31T16:17:19.901Z,23.83
2022-08-31T16:19:48.582Z,23.89
2022-08-31T16:22:17.859Z,23.92
2022-08-31T16:24:46.905Z,23.93
2022-08-31T16:27:17.479Z,23.95
2022-08-31T16:29:45.695Z,23.95
2022-08-31T16:32:13.927Z,23.89
2022-08-31T16:34:42.698Z,23.90
2022-08-31T16:37:10.516Z,23.91
2022-08-31T16:39:40.242Z,23.91
2022-08-31T16:42:10.971Z,23.90
2022-08-31T16:44:42.364Z,23.89
2022-08-31T16:47:10.308Z,23.87
2022-08-31T16:49:40.304Z,23.86
2022-08-31T16:52:11.447Z,23.81
2022-08-31T16:54:42.721Z,23.79
2022-08-31T16:57:10.652Z,23.78
2022-08-31T16:59:38.470Z,23.76
2022-08-31T17:02:08.417Z,23.74
2022-08-31T17:04:53.929Z,23.71
2022-08-31T17:07:24.502Z,23.64
2022-08-31T17:09:57.065Z,23.60
2022-08-31T17:12:26.122Z,23.56
2022-08-31T17:14:54.177Z,23.52
2022-08-31T17:17:26.032Z,23.48
2022-08-31T17:19:55.715Z,23.43
2022-08-31T17:22:31.838Z,23.40
2022-08-31T17:25:04.517Z,23.36
2022-08-31T17:27:34.550Z,23.32
2022-08-31T17:30:06.084Z,23.25
2022-08-31T17:32:41.809Z,23.22
2022-08-31T17:35:17.607Z,23.19
2022-08-31T17:37:45.805Z,23.14
2022-08-31T17:40:14.366Z,23.10
2022-08-31T17:42:42.363Z,23.02
2022-08-31T17:45:11.159Z,22.94
2022-08-31T17:47:40.384Z,22.90
2022-08-31T17:50:09.081Z,22.84
2022-08-31T17:52:36.886Z,22.80
2022-08-31T17:55:06.944Z,22.73
2022-08-31T17:57:34.749Z,22.67
2022-08-31T18:00:02.618Z,22.62
2022-08-31T18:02:32.164Z,22.54
2022-08-31T18:05:01.830Z,22.48
2022-08-31T18:07:30.029Z,22.41
2022-08-31T18:09:57.956Z,22.35
2022-08-31T18:12:25.978Z,22.28
2022-08-31T18:14:57.351Z,22.22
2022-08-31T18:17:26.624Z,22.12
2022-08-31T18:19:54.785Z,22.03
2022-08-31T18:22:24.259Z,21.98
2022-08-31T18:24:52.117Z,21.91
2022-08-31T18:27:20.781Z,21.85
2022-08-31T18:29:48.643Z,21.78
2022-08-31T18:32:17.173Z,21.70
2022-08-31T18:34:46.970Z,21.62
2022-08-31T18:37:17.667Z,21.57
2022-08-31T18:40:04.251Z,21.52
2022-08-31T18:42:51.864Z,21.46
2022-08-31T18:45:20.092Z,21.37
2022-08-31T18:50:43.024Z,21.22
2022-08-31T18:53:15.624Z,21.15
2022-08-31T18:55:57.190Z,21.07
2022-08-31T18:58:25.005Z,20.98
2022-08-31T19:00:57.547Z,20.82
2022-08-31T19:03:27.524Z,20.70
2022-08-31T19:05:56.505Z,20.68
2022-08-31T19:08:24.534Z,20.66
2022-08-31T19:10:52.592Z,20.62
2022-08-31T19:13:22.377Z,20.58
2022-08-31T19:15:50.159Z,20.53
2022-08-31T19:18:18.032Z,20.50
2022-08-31T19:20:45.815Z,20.45
2022-08-31T19:23:18.343Z,20.40
2022-08-31T19:25:48.532Z,20.35
2022-08-31T19:28:16.345Z,20.29
2022-08-31T19:30:48.684Z,20.23
2022-08-31T19:33:16.967Z,20.16
2022-08-31T19:35:45.125Z,20.13
2022-08-31T19:38:14.180Z,20.06
2022-08-31T19:40:42.354Z,20.02
2022-08-31T19:46:15.660Z,19.90
2022-08-31T19:48:44.621Z,19.87
2022-08-31T19:51:14.205Z,19.82
2022-08-31T19:53:45.066Z,19.80
2022-08-31T19:56:17.557Z,19.78
2022-08-31T19:58:46.998Z,19.77
2022-08-31T20:01:18.293Z,19.70
2022-08-31T20:03:48.024Z,19.67
2022-08-31T20:06:19.265Z,19.62
2022-08-31T20:08:48.798Z,19.58
2022-08-31T20:11:21.877Z,19.54
2022-08-31T20:13:50.489Z,19.47
2022-08-31T20:16:22.119Z,19.43
2022-08-31T20:18:57.729Z,19.41
2022-08-31T20:21:28.035Z,19.36
2022-08-31T20:23:57.841Z,19.32
2022-08-31T20:26:33.238Z,19.26
2022-08-31T20:29:08.846Z,19.22
2022-08-31T20:31:41.545Z,19.17
2022-08-31T20:34:10.141Z,19.13
2022-08-31T20:36:38.871Z,19.10
2022-08-31T20:39:09.478Z,19.07
2022-08-31T20:41:40.072Z,19.05
2022-08-31T20:44:11.471Z,19.00
2022-08-31T20:47:03.399Z,18.95
2022-08-31T20:49:33.443Z,18.89
2022-08-31T20:52:01.872Z,18.87
2022-08-31T20:54:31.847Z,18.79
2022-08-31T20:57:02.689Z,18.76
2022-08-31T20:59:31.364Z,18.74
2022-08-31T21:02:03.547Z,18.73
2022-08-31T21:04:32.804Z,18.71
2022-08-31T21:07:02.377Z,18.68
2022-08-31T21:09:31.271Z,18.65
2022-08-31T21:12:00.085Z,18.64
2022-08-31T21:14:29.556Z,18.63
2022-08-31T21:16:57.867Z,18.62
2022-08-31T21:19:27.048Z,18.60
2022-08-31T21:22:05.181Z,18.58
2022-08-31T21:24:36.261Z,18.55
2022-08-31T21:27:05.960Z,18.54
2022-08-31T21:29:35.481Z,18.51
2022-08-31T21:32:07.043Z,18.48
2022-08-31T21:34:37.321Z,18.45
2022-08-31T21:37:05.914Z,18.43
2022-08-31T21:39:34.669Z,18.37
2022-08-31T21:42:02.661Z,18.34
2022-08-31T21:44:30.655Z,18.32
2022-08-31T21:46:58.543Z,18.30
2022-08-31T21:49:26.459Z,18.28
2022-08-31T21:51:57.772Z,18.25
2022-08-31T21:54:27.758Z,18.21
2022-08-31T21:56:57.696Z,18.18
2022-08-31T21:59:27.947Z,18.17
2022-08-31T22:01:59.205Z,18.15
2022-08-31T22:04:28.244Z,18.10
2022-08-31T22:06:59.527Z,18.09
2022-08-31T22:09:29.611Z,18.06
2022-08-31T22:11:59.031Z,18.01
2022-08-31T22:14:31.950Z,17.97
2022-08-31T22:17:02.847Z,17.91
2022-08-31T22:19:33.912Z,17.88
2022-08-31T22:22:05.053Z,17.85
2022-08-31T22:24:35.884Z,17.81
2022-08-31T22:27:06.308Z,17.77
2022-08-31T22:29:36.359Z,17.74
2022-08-31T22:32:09.534Z,17.72
2022-08-31T22:34:38.849Z,17.67
2022-08-31T22:37:09.014Z,17.65
2022-08-31T22:39:37.006Z,17.64
2022-08-31T22:42:05.251Z,17.63
2022-08-31T22:44:34.455Z,17.59
2022-08-31T22:47:03.197Z,17.56
2022-08-31T22:49:31.051Z,17.55
2022-08-31T22:51:58.849Z,17.54
2022-08-31T22:54:28.154Z,17.52
2022-08-31T22:56:56.057Z,17.49
2022-08-31T22:59:27.283Z,17.47
2022-08-31T23:01:57.514Z,17.47
2022-08-31T23:04:28.241Z,17.44
2022-08-31T23:06:57.446Z,17.45
2022-08-31T23:09:30.226Z,17.41
2022-08-31T23:11:59.789Z,17.36
2022-08-31T23:14:28.504Z,17.37
2022-08-31T23:16:59.671Z,17.35
2022-08-31T23:19:30.588Z,17.37
2022-08-31T23:21:59.029Z,17.33
2022-08-31T23:24:30.521Z,17.31
2022-08-31T23:27:04.157Z,17.31
2022-08-31T23:29:34.503Z,17.29
2022-08-31T23:32:02.948Z,17.28
2022-08-31T23:34:33.900Z,17.25
2022-08-31T23:37:02.927Z,17.23
2022-08-31T23:39:32.093Z,17.19
2022-08-31T23:42:00.077Z,17.17
2022-08-31T23:44:28.909Z,17.16
2022-08-31T23:46:57.115Z,17.13
2022-08-31T23:49:24.942Z,17.11
2022-08-31T23:51:52.813Z,17.07
2022-08-31T23:54:21.294Z,17.04
2022-08-31T23:56:52.131Z,17.02
2022-08-31T23:59:21.075Z,17.01
